createdAt,value
2016-10-03T00:00:11.494Z,1015.53
2016-10-03T00:01:12.214Z,1015.47
2016-10-03T00:02:12.900Z,1015.5
2016-10-03T00:03:13.596Z,1015.5
2016-10-03T00:04:14.281Z,1015.49
2016-10-03T00:05:14.974Z,1015.52
2016-10-03T00:06:15.677Z,1015.48
2016-10-03T00:07:16.359Z,1015.53
2016-10-03T00:08:17.074Z,1015.54
2016-10-03T00:09:17.756Z,1015.57
2016-10-03T00:10:18.461Z,1015.59
2016-10-03T00:11:19.137Z,1015.63
2016-10-03T00:12:19.849Z,1015.62
2016-10-03T00:13:20.537Z,1015.65
2016-10-03T00:14:21.243Z,1015.66
2016-10-03T00:15:21.925Z,1015.65
2016-10-03T00:16:22.619Z,1015.65
2016-10-03T00:17:23.291Z,1015.65
2016-10-03T00:18:23.978Z,1015.63
2016-10-03T00:19:24.675Z,1015.69
2016-10-03T00:20:25.356Z,1015.65
2016-10-03T00:21:26.061Z,1015.68
2016-10-03T00:22:26.736Z,1015.67
2016-10-03T00:23:27.455Z,1015.71
2016-10-03T00:24:28.154Z,1015.69
2016-10-03T00:25:28.849Z,1015.7
2016-10-03T00:26:29.537Z,1015.68
2016-10-03T00:27:30.249Z,1015.7
2016-10-03T00:28:30.928Z,1015.69
2016-10-03T00:29:31.627Z,1015.68
2016-10-03T00:30:32.343Z,1015.7
2016-10-03T00:31:33.025Z,1015.69
2016-10-03T00:32:33.719Z,1015.74
2016-10-03T00:33:34.398Z,1015.73
2016-10-03T00:34:35.071Z,1015.74
2016-10-03T00:35:35.763Z,1015.77
2016-10-03T00:36:36.452Z,1015.81
2016-10-03T00:37:37.143Z,1015.83
2016-10-03T00:38:37.843Z,1015.81
2016-10-03T00:39:38.533Z,1015.86
2016-10-03T00:40:39.224Z,1015.83
2016-10-03T00:41:39.918Z,1015.83
2016-10-03T00:42:40.610Z,1015.88
2016-10-03T00:43:41.312Z,1015.89
2016-10-03T00:44:41.990Z,1015.88
2016-10-03T00:45:42.679Z,1015.84
2016-10-03T00:46:43.374Z,1015.89
2016-10-03T00:47:44.065Z,1015.89
2016-10-03T00:48:44.753Z,1015.88
2016-10-03T00:49:45.426Z,1015.85
2016-10-03T00:50:46.098Z,1015.87
2016-10-03T00:51:46.799Z,1015.85
2016-10-03T00:52:47.485Z,1015.88
2016-10-03T00:53:48.185Z,1015.89
2016-10-03T00:54:48.853Z,1015.89
2016-10-03T00:55:49.537Z,1015.92
2016-10-03T00:56:50.247Z,1015.94
2016-10-03T00:57:50.927Z,1015.93
2016-10-03T00:58:51.619Z,1015.94
2016-10-03T00:59:52.297Z,1015.98
2016-10-03T01:00:52.992Z,1015.97
2016-10-03T01:01:53.686Z,1015.97
2016-10-03T01:02:54.373Z,1015.97
2016-10-03T01:03:55.057Z,1015.98
2016-10-03T01:04:55.742Z,1015.99
2016-10-03T12:44:11.984Z,1023.8
2016-10-03T12:45:12.685Z,1023.84
2016-10-03T12:46:13.429Z,1023.81
2016-10-03T12:47:14.107Z,1023.83
2016-10-03T12:48:14.822Z,1023.88
2016-10-03T12:49:15.525Z,1023.87
2016-10-03T12:50:16.217Z,1023.92
2016-10-03T12:51:16.899Z,1023.89
2016-10-03T12:52:17.594Z,1023.88
2016-10-03T12:53:18.294Z,1023.92
2016-10-03T12:54:18.978Z,1023.9
2016-10-03T12:55:19.698Z,1023.87
2016-10-03T12:56:20.475Z,1023.87
2016-10-03T12:57:21.157Z,1023.86
2016-10-03T12:58:22.118Z,1023.89
2016-10-03T12:59:22.847Z,1023.91
2016-10-03T13:00:23.609Z,1023.92
2016-10-03T13:01:24.504Z,1023.91
2016-10-03T13:02:25.427Z,1023.93
2016-10-03T13:03:26.173Z,1023.93
2016-10-03T13:04:26.994Z,1023.98
2016-10-03T13:05:28.033Z,1023.98
2016-10-03T13:06:28.732Z,1024.02
2016-10-03T13:07:29.564Z,1024.09
2016-10-03T13:08:30.297Z,1024.06
2016-10-03T13:09:31.020Z,1024.1
2016-10-03T13:10:31.731Z,1024.14
2016-10-03T13:11:32.522Z,1024.15
2016-10-03T13:12:33.370Z,1024.18
2016-10-03T13:13:34.173Z,1024.21
2016-10-03T13:14:36.201Z,1024.23
2016-10-03T13:15:36.821Z,1024.22
2016-10-03T13:16:37.494Z,1024.29
2016-10-03T13:17:38.280Z,1024.28
2016-10-03T13:18:38.973Z,1024.27
2016-10-03T13:19:39.766Z,1024.24
2016-10-03T13:20:40.518Z,1024.27
2016-10-03T13:21:41.216Z,1024.26
2016-10-03T13:22:41.957Z,1024.27
2016-10-03T13:23:42.691Z,1024.27
2016-10-03T13:24:43.421Z,1024.31
2016-10-03T13:25:44.152Z,1024.33
2016-10-03T13:26:44.865Z,1024.35
2016-10-03T13:27:45.639Z,1024.37
2016-10-03T13:28:46.306Z,1024.4
2016-10-03T13:29:47.027Z,1024.43
2016-10-03T13:30:47.710Z,1024.42
2016-10-03T13:31:48.435Z,1024.41
2016-10-03T13:32:49.168Z,1024.45
2016-10-03T13:33:49.893Z,1024.47
2016-10-03T13:34:50.574Z,1024.46
2016-10-03T13:35:52.025Z,1024.45
2016-10-03T13:36:52.790Z,1024.44
2016-10-03T13:37:53.466Z,1024.49
2016-10-03T13:38:54.462Z,1024.47
2016-10-03T13:39:55.175Z,1024.53
2016-10-03T13:40:55.902Z,1024.53
2016-10-03T13:41:56.591Z,1024.49
2016-10-03T13:42:57.301Z,1024.48
2016-10-03T13:43:58.002Z,1024.51
2016-10-03T13:44:58.703Z,1024.51
2016-10-03T13:45:59.430Z,1024.54
2016-10-03T13:47:00.144Z,1024.55
2016-10-03T13:48:00.844Z,1024.58
2016-10-03T13:49:01.569Z,1024.56
2016-10-03T13:50:02.276Z,1024.56
2016-10-03T13:51:03.049Z,1024.55
2016-10-03T13:52:03.765Z,1024.55
2016-10-03T13:53:04.474Z,1024.62
2016-10-03T13:54:05.174Z,1024.6
2016-10-03T13:55:05.889Z,1024.61
2016-10-03T13:56:06.581Z,1024.64
2016-10-03T13:57:07.276Z,1024.66
2016-10-03T13:58:08.045Z,1024.65
2016-10-03T13:59:08.742Z,1024.65
2016-10-03T14:00:09.459Z,1024.69
2016-10-03T14:01:10.163Z,1024.65
2016-10-03T14:02:10.864Z,1024.66
2016-10-03T14:03:11.587Z,1024.65
2016-10-03T14:04:12.294Z,1024.69
2016-10-03T14:05:13.035Z,1024.69
2016-10-03T14:06:13.757Z,1024.7
2016-10-03T14:07:14.481Z,1024.77
2016-10-03T14:08:15.225Z,1024.77
2016-10-03T14:09:15.939Z,1024.75
2016-10-03T14:10:16.646Z,1024.73
2016-10-03T14:11:17.346Z,1024.72
2016-10-03T14:12:18.072Z,1024.76
2016-10-03T14:13:18.755Z,1024.75
2016-10-03T14:14:19.477Z,1024.78
2016-10-03T14:15:20.188Z,1024.77
2016-10-03T14:16:20.918Z,1024.79
2016-10-03T14:17:21.594Z,1024.83
2016-10-03T14:18:22.325Z,1024.86
2016-10-03T14:19:23.042Z,1024.87
2016-10-03T14:20:23.774Z,1024.87
2016-10-03T14:21:24.441Z,1024.89
2016-10-03T14:22:25.147Z,1024.9
2016-10-03T14:23:25.859Z,1024.92
2016-10-03T14:24:26.605Z,1025
2016-10-03T14:25:27.290Z,1025
2016-10-03T14:26:27.995Z,1025.01
2016-10-03T14:28:29.409Z,1024.98
2016-10-03T14:29:30.116Z,1024.99
2016-10-03T14:30:30.818Z,1024.97
2016-10-03T14:31:31.556Z,1024.95
2016-10-03T14:32:32.248Z,1024.97
2016-10-03T14:33:33.924Z,1024.96
2016-10-03T14:34:34.645Z,1024.96
2016-10-03T14:35:35.325Z,1024.97
2016-10-03T14:36:36.016Z,1025.01
2016-10-03T14:37:36.707Z,1025.05
2016-10-03T14:38:37.395Z,1025.08
2016-10-03T14:39:38.095Z,1025.15
2016-10-03T14:40:38.788Z,1025.11
2016-10-03T14:41:39.485Z,1025.14
2016-10-03T14:42:40.183Z,1025.09
2016-10-03T14:43:40.862Z,1025.09
2016-10-03T14:44:41.573Z,1025.09
2016-10-03T14:45:42.974Z,1025.05
2016-10-03T14:46:43.707Z,1025.1
2016-10-03T14:47:44.409Z,1025.06
2016-10-03T14:48:46.056Z,1025.1
2016-10-03T14:49:46.759Z,1025.07
2016-10-03T14:50:47.455Z,1025.07
2016-10-03T14:51:48.179Z,1025.06
2016-10-03T14:52:48.882Z,1025.13
2016-10-03T14:53:49.576Z,1025.14
2016-10-03T14:54:50.304Z,1025.19
2016-10-03T14:55:50.998Z,1025.2
2016-10-03T14:56:51.700Z,1025.2
2016-10-03T14:57:52.467Z,1025.21
2016-10-03T14:58:53.151Z,1025.2
2016-10-03T14:59:53.913Z,1025.23
2016-10-03T15:00:54.613Z,1025.22
2016-10-03T15:01:55.316Z,1025.27
2016-10-03T15:02:56.039Z,1025.22
2016-10-03T15:03:56.727Z,1025.29
2016-10-03T15:04:57.418Z,1025.31
2016-10-03T15:05:58.810Z,1025.31
2016-10-03T15:06:59.503Z,1025.3
2016-10-03T15:08:00.200Z,1025.3
2016-10-03T15:09:00.979Z,1025.35
2016-10-03T15:10:01.716Z,1025.38
2016-10-03T15:11:02.425Z,1025.4
2016-10-03T15:12:03.116Z,1025.39
2016-10-03T15:13:03.871Z,1025.42
2016-10-03T15:14:04.595Z,1025.41
2016-10-03T15:15:05.322Z,1025.42
2016-10-03T15:16:06.031Z,1025.47
2016-10-03T15:17:06.756Z,1025.47
2016-10-03T15:18:07.493Z,1025.49
2016-10-03T15:19:08.219Z,1025.52
2016-10-03T15:20:08.939Z,1025.46
2016-10-03T15:21:09.637Z,1025.53
2016-10-03T15:22:10.370Z,1025.52
2016-10-03T15:23:11.076Z,1025.52
2016-10-03T15:24:11.792Z,1025.53
2016-10-03T15:25:12.500Z,1025.54
2016-10-03T15:26:13.984Z,1025.52
2016-10-03T15:27:14.670Z,1025.55
2016-10-03T15:28:15.364Z,1025.52
2016-10-03T15:29:16.076Z,1025.57
2016-10-03T15:30:16.818Z,1025.54
2016-10-03T15:31:17.538Z,1025.62
2016-10-03T15:32:18.237Z,1025.6
2016-10-03T15:33:18.967Z,1025.64
2016-10-03T15:34:19.661Z,1025.61
2016-10-03T15:35:20.384Z,1025.68
2016-10-03T15:36:21.164Z,1025.65
2016-10-03T15:37:21.870Z,1025.67
2016-10-03T15:38:22.569Z,1025.69
2016-10-03T15:39:23.278Z,1025.7
2016-10-03T15:40:23.970Z,1025.71
2016-10-03T15:41:24.680Z,1025.74
2016-10-03T15:42:25.394Z,1025.78
2016-10-03T15:43:26.095Z,1025.75
2016-10-03T15:44:26.808Z,1025.8
2016-10-03T15:45:27.519Z,1025.8
2016-10-03T15:46:28.223Z,1025.84
2016-10-03T15:47:28.919Z,1025.82
2016-10-03T15:48:29.621Z,1025.83
2016-10-03T15:49:30.305Z,1025.83
2016-10-03T15:50:31.022Z,1025.82
2016-10-03T15:51:31.802Z,1025.85
2016-10-03T15:52:32.510Z,1025.86
2016-10-03T15:53:33.210Z,1025.83
2016-10-03T15:54:33.926Z,1025.9
2016-10-03T15:55:34.640Z,1025.89
2016-10-03T15:56:35.339Z,1025.9
2016-10-03T15:57:36.044Z,1025.87
2016-10-03T15:58:36.828Z,1025.91
2016-10-03T15:59:37.663Z,1025.92
2016-10-03T16:00:38.352Z,1025.97
2016-10-03T16:01:39.120Z,1025.96
2016-10-03T16:02:39.907Z,1025.98
2016-10-03T16:03:40.654Z,1025.97
2016-10-03T16:04:41.395Z,1026.03
2016-10-03T16:05:42.098Z,1026.02
2016-10-03T16:06:42.804Z,1026.05
2016-10-03T16:07:43.524Z,1026.08
2016-10-03T16:08:44.296Z,1026.07
2016-10-03T16:09:44.974Z,1026.07
2016-10-03T16:10:45.746Z,1026.09
2016-10-03T16:11:46.466Z,1026.05
2016-10-03T16:12:47.202Z,1026.11
2016-10-03T16:13:47.934Z,1026.13
2016-10-03T16:14:48.706Z,1026.13
2016-10-03T16:15:49.417Z,1026.19
2016-10-03T16:16:50.134Z,1026.18
2016-10-03T16:17:50.833Z,1026.22
2016-10-03T16:18:51.798Z,1026.21
2016-10-03T16:19:52.649Z,1026.2
2016-10-03T16:20:53.374Z,1026.21
2016-10-03T16:21:54.301Z,1026.26
2016-10-03T16:22:55.104Z,1026.33
2016-10-03T16:23:55.819Z,1026.29
2016-10-03T16:24:56.609Z,1026.28
2016-10-03T16:25:57.316Z,1026.3
2016-10-03T16:26:58.037Z,1026.33
2016-10-03T16:27:58.802Z,1026.32
2016-10-03T16:28:59.560Z,1026.33
2016-10-03T16:30:00.293Z,1026.33
2016-10-03T16:31:02.302Z,1026.29
2016-10-03T16:32:03.304Z,1026.37
2016-10-03T16:33:04.137Z,1026.38
2016-10-03T16:34:05.026Z,1026.4
2016-10-03T16:35:05.764Z,1026.45
2016-10-03T16:36:06.600Z,1026.49
2016-10-03T16:37:07.358Z,1026.46
2016-10-03T16:38:08.102Z,1026.48
2016-10-03T16:39:08.961Z,1026.47
2016-10-03T16:40:09.735Z,1026.55
2016-10-03T16:41:10.483Z,1026.53
2016-10-03T16:42:11.274Z,1026.6
2016-10-03T16:43:12.027Z,1026.6
2016-10-03T16:44:12.824Z,1026.61
2016-10-03T16:45:13.515Z,1026.67
2016-10-03T16:46:14.915Z,1026.64
2016-10-03T16:47:15.700Z,1026.66
2016-10-03T16:48:16.458Z,1026.69
2016-10-03T16:49:17.347Z,1026.65
2016-10-03T16:50:18.091Z,1026.66
2016-10-03T16:51:18.895Z,1026.75
2016-10-03T16:52:19.703Z,1026.75
2016-10-03T16:53:20.488Z,1026.78
2016-10-03T16:54:21.306Z,1026.81
2016-10-03T16:55:22.098Z,1026.8
2016-10-03T16:56:22.830Z,1026.84
2016-10-03T16:57:23.556Z,1026.86
2016-10-03T16:58:24.301Z,1026.87
2016-10-03T16:59:25.109Z,1026.9
2016-10-03T17:00:25.849Z,1026.89
2016-10-03T17:01:26.604Z,1026.92
2016-10-03T17:02:27.329Z,1026.94
2016-10-03T17:03:28.127Z,1026.93
2016-10-03T17:04:28.936Z,1026.96
2016-10-03T17:05:29.790Z,1026.99
2016-10-03T17:06:30.520Z,1027.05
2016-10-03T17:07:31.393Z,1027.06
2016-10-03T17:08:32.135Z,1027.11
2016-10-03T17:09:32.778Z,1027.12
2016-10-03T17:10:33.517Z,1027.1
2016-10-03T17:11:34.193Z,1027.12
2016-10-03T17:12:34.910Z,1027.12
2016-10-03T17:13:35.618Z,1027.11
2016-10-03T17:14:36.321Z,1027.14
2016-10-03T17:15:37.090Z,1027.2
2016-10-03T17:16:37.835Z,1027.19
2016-10-03T17:17:38.808Z,1027.21
2016-10-03T17:18:39.403Z,1027.28
2016-10-03T17:19:40.173Z,1027.32
2016-10-03T17:20:41.120Z,1027.3
2016-10-03T17:21:41.851Z,1027.35
2016-10-03T17:22:42.606Z,1027.38
2016-10-03T17:23:43.488Z,1027.37
2016-10-03T17:24:44.343Z,1027.43
2016-10-03T17:25:45.186Z,1027.46
2016-10-03T17:26:45.973Z,1027.44
2016-10-03T17:27:46.847Z,1027.42
2016-10-03T17:28:47.903Z,1027.43
2016-10-03T17:29:48.478Z,1027.41
2016-10-03T17:30:49.231Z,1027.46
2016-10-03T17:31:49.961Z,1027.44
2016-10-03T17:32:50.749Z,1027.43
2016-10-03T17:33:51.483Z,1027.46
2016-10-03T17:34:52.234Z,1027.45
2016-10-03T17:35:52.963Z,1027.45
2016-10-03T17:36:53.675Z,1027.44
2016-10-03T17:37:54.471Z,1027.48
2016-10-03T17:38:55.133Z,1027.47
2016-10-03T17:39:55.850Z,1027.49
2016-10-03T17:40:56.887Z,1027.53
2016-10-03T17:41:57.684Z,1027.57
2016-10-03T17:42:58.549Z,1027.54
2016-10-03T17:43:59.356Z,1027.54
2016-10-03T17:45:00.162Z,1027.58
2016-10-03T17:46:00.953Z,1027.59
2016-10-03T17:47:01.771Z,1027.6
2016-10-03T17:48:02.471Z,1027.66
2016-10-03T17:49:03.297Z,1027.65
2016-10-03T17:50:03.965Z,1027.68
2016-10-03T17:51:04.683Z,1027.69
2016-10-03T17:52:05.465Z,1027.76
2016-10-03T17:53:07.093Z,1027.74
2016-10-03T17:54:07.816Z,1027.75
2016-10-03T17:55:08.594Z,1027.81
2016-10-03T17:56:09.336Z,1027.81
2016-10-03T17:57:10.075Z,1027.81
2016-10-03T17:58:10.843Z,1027.86
2016-10-03T17:59:11.584Z,1027.85
2016-10-03T18:00:12.285Z,1027.88
2016-10-03T18:01:13.044Z,1027.86
2016-10-03T18:02:13.718Z,1027.84
2016-10-03T18:03:14.545Z,1027.85
2016-10-03T18:04:15.255Z,1027.88
2016-10-03T18:05:15.981Z,1027.86
2016-10-03T18:06:16.712Z,1027.92
2016-10-03T18:07:17.467Z,1027.98
2016-10-03T18:08:18.293Z,1028.01
2016-10-03T18:09:18.970Z,1028
2016-10-03T18:10:19.744Z,1028.04
2016-10-03T18:11:20.547Z,1028.04
2016-10-03T18:12:21.484Z,1028.04
2016-10-03T18:13:22.253Z,1028.11
2016-10-03T18:14:23.211Z,1028.08
2016-10-03T18:15:23.914Z,1028.06
2016-10-03T18:16:24.670Z,1028.11
2016-10-03T18:17:25.441Z,1028.18
2016-10-03T18:18:26.219Z,1028.17
2016-10-03T18:19:26.942Z,1028.2
2016-10-03T18:20:27.704Z,1028.23
2016-10-03T18:21:28.404Z,1028.25
2016-10-03T18:22:29.114Z,1028.24
2016-10-03T18:23:29.833Z,1028.2
2016-10-03T18:24:30.657Z,1028.23
2016-10-03T18:25:31.391Z,1028.3
2016-10-03T18:26:32.119Z,1028.29
2016-10-03T18:27:32.841Z,1028.34
2016-10-03T18:28:33.555Z,1028.34
2016-10-03T18:29:34.273Z,1028.35
2016-10-03T18:30:35.003Z,1028.33
2016-10-03T18:31:35.704Z,1028.38
2016-10-03T18:32:36.418Z,1028.37
2016-10-03T18:33:37.141Z,1028.41
2016-10-03T18:34:37.919Z,1028.42
2016-10-03T18:35:38.624Z,1028.44
2016-10-03T18:36:39.669Z,1028.44
2016-10-03T18:37:40.449Z,1028.46
2016-10-03T18:38:41.172Z,1028.43
2016-10-03T18:39:41.993Z,1028.48
2016-10-03T18:40:42.759Z,1028.46
2016-10-03T18:41:44.465Z,1028.43
2016-10-03T18:42:44.624Z,1028.47
2016-10-03T18:43:45.342Z,1028.56
2016-10-03T18:44:46.050Z,1028.54
2016-10-03T18:45:46.765Z,1028.52
2016-10-03T18:46:47.491Z,1028.54
2016-10-03T18:47:48.193Z,1028.57
2016-10-03T18:48:48.909Z,1028.58
2016-10-03T18:49:49.647Z,1028.62
2016-10-03T18:50:50.404Z,1028.65
2016-10-03T18:51:51.187Z,1028.64
2016-10-03T18:52:51.986Z,1028.68
2016-10-03T18:53:52.768Z,1028.7
2016-10-03T18:54:53.552Z,1028.64
2016-10-03T18:55:54.307Z,1028.7
2016-10-03T18:56:55.013Z,1028.69
2016-10-03T18:57:55.731Z,1028.7
2016-10-03T18:58:56.443Z,1028.71
2016-10-03T18:59:57.152Z,1028.72
2016-10-03T19:00:57.866Z,1028.7
2016-10-03T19:01:58.617Z,1028.66
2016-10-03T19:02:59.379Z,1028.66
2016-10-03T19:04:00.074Z,1028.67
2016-10-03T19:05:00.875Z,1028.7
2016-10-03T19:06:01.579Z,1028.72
2016-10-03T19:07:02.314Z,1028.69
2016-10-03T19:08:03.022Z,1028.77
2016-10-03T19:09:03.778Z,1028.78
2016-10-03T19:10:04.598Z,1028.77
2016-10-03T19:11:05.335Z,1028.76
2016-10-03T19:12:06.066Z,1028.79
2016-10-03T19:13:06.755Z,1028.81
2016-10-03T19:14:07.471Z,1028.83
2016-10-03T19:15:08.186Z,1028.89
2016-10-03T19:16:08.886Z,1028.87
2016-10-03T19:17:09.586Z,1028.89
2016-10-03T19:18:10.287Z,1028.92
2016-10-03T19:19:11.057Z,1028.89
2016-10-03T19:20:11.743Z,1028.91
2016-10-03T19:21:12.457Z,1028.92
2016-10-03T19:22:13.181Z,1029
2016-10-03T19:23:13.889Z,1029
2016-10-03T19:24:14.592Z,1028.98
2016-10-03T19:25:15.310Z,1029.04
2016-10-03T19:26:16.006Z,1029.04
2016-10-03T19:27:16.700Z,1029.04
2016-10-03T19:28:17.457Z,1029.03
2016-10-03T19:29:18.129Z,1029.03
2016-10-03T19:30:18.816Z,1029.1
2016-10-03T19:31:19.529Z,1029.08
2016-10-03T19:32:20.267Z,1029.11
2016-10-03T19:33:21.005Z,1029.11
2016-10-03T19:34:21.731Z,1029.12
2016-10-03T19:35:22.471Z,1029.12
2016-10-03T19:36:23.251Z,1029.14
2016-10-03T19:37:23.932Z,1029.12
2016-10-03T19:38:24.709Z,1029.18
2016-10-03T19:39:25.520Z,1029.19
2016-10-03T19:40:26.334Z,1029.22
2016-10-03T19:41:27.075Z,1029.25
2016-10-03T19:42:27.828Z,1029.25
2016-10-03T19:43:28.658Z,1029.27
2016-10-03T19:44:29.480Z,1029.28
2016-10-03T19:45:30.278Z,1029.3
2016-10-03T19:46:31.114Z,1029.3
2016-10-03T19:47:31.834Z,1029.31
2016-10-03T19:48:32.548Z,1029.35
2016-10-03T19:49:33.268Z,1029.34
2016-10-03T19:50:34.031Z,1029.33
2016-10-03T19:51:34.745Z,1029.33
2016-10-03T19:52:35.454Z,1029.36
2016-10-03T19:53:36.174Z,1029.32
2016-10-03T19:54:36.894Z,1029.37
2016-10-03T19:55:37.606Z,1029.33
2016-10-03T19:56:39.073Z,1029.36
2016-10-03T19:57:39.790Z,1029.4
2016-10-03T19:58:40.474Z,1029.39
2016-10-03T19:59:41.226Z,1029.42
2016-10-03T20:00:41.932Z,1029.42
2016-10-03T20:01:42.637Z,1029.44
2016-10-03T20:02:43.355Z,1029.43
2016-10-03T20:03:44.076Z,1029.44
2016-10-03T20:04:44.776Z,1029.46
2016-10-03T20:05:46.068Z,1029.47
2016-10-03T20:06:46.789Z,1029.49
2016-10-03T20:07:48.203Z,1029.45
2016-10-03T20:08:48.922Z,1029.51
2016-10-03T20:09:49.726Z,1029.49
2016-10-03T20:10:50.720Z,1029.43
2016-10-03T20:11:53.089Z,1029.54
2016-10-03T20:12:53.277Z,1029.62
2016-10-03T20:13:54.541Z,1029.64
2016-10-03T20:14:55.833Z,1029.65
2016-10-03T20:15:57.151Z,1029.68
2016-10-03T20:16:58.098Z,1029.71
2016-10-03T20:17:59.100Z,1029.72
2016-10-03T20:19:00.042Z,1029.7
2016-10-03T20:20:01.028Z,1029.71
2016-10-03T20:21:03.839Z,1029.7
2016-10-03T20:22:04.896Z,1029.75
2016-10-03T20:23:05.658Z,1029.78
2016-10-03T20:24:06.391Z,1029.73
2016-10-03T20:25:07.104Z,1029.8
2016-10-03T20:26:07.813Z,1029.84
2016-10-03T20:27:08.537Z,1029.85
2016-10-03T20:28:09.241Z,1029.83
2016-10-03T20:29:10.008Z,1029.86
2016-10-03T20:30:10.802Z,1029.9
2016-10-03T20:31:11.730Z,1029.91
2016-10-03T20:32:12.446Z,1029.94
2016-10-03T20:33:13.180Z,1029.95
2016-10-03T20:34:13.940Z,1029.98
2016-10-03T20:35:14.650Z,1029.94
2016-10-03T20:36:15.390Z,1029.98
2016-10-03T20:37:16.406Z,1029.98
2016-10-03T20:38:17.128Z,1030
2016-10-03T20:39:18.601Z,1030.02
2016-10-03T20:40:19.333Z,1030.04
2016-10-03T20:41:20.067Z,1030.07
2016-10-03T20:42:21.296Z,1030.08
2016-10-03T20:43:21.975Z,1030.13
2016-10-03T20:44:22.711Z,1030.17
2016-10-03T20:45:23.545Z,1030.2
2016-10-03T20:46:24.371Z,1030.17
2016-10-03T20:47:25.040Z,1030.23
2016-10-03T20:48:25.750Z,1030.18
2016-10-03T20:49:26.455Z,1030.24
2016-10-03T20:50:27.148Z,1030.23
2016-10-03T20:51:28.907Z,1030.29
2016-10-03T20:52:30.588Z,1030.29
2016-10-03T20:53:31.579Z,1030.29
2016-10-03T20:54:32.438Z,1030.27
2016-10-03T20:55:33.947Z,1030.29
2016-10-03T20:56:35.515Z,1030.28
2016-10-03T20:57:36.323Z,1030.33
2016-10-03T20:58:37.758Z,1030.35
2016-10-03T20:59:39.091Z,1030.36
2016-10-03T21:00:40.123Z,1030.39
2016-10-03T21:01:41.308Z,1030.36
2016-10-03T21:02:42.244Z,1030.39
2016-10-03T21:03:46.393Z,1030.38
2016-10-03T21:04:47.623Z,1030.36
2016-10-03T21:05:48.494Z,1030.41
2016-10-03T21:06:51.769Z,1030.35
2016-10-03T21:07:53.535Z,1030.4
2016-10-03T21:08:54.725Z,1030.39
2016-10-03T21:09:55.611Z,1030.39
2016-10-03T21:10:57.307Z,1030.45
2016-10-03T21:11:58.103Z,1030.41
2016-10-03T21:12:59.143Z,1030.37
2016-10-03T21:14:00.379Z,1030.46
2016-10-03T21:15:01.245Z,1030.52
2016-10-03T21:16:02.386Z,1030.47
2016-10-03T21:17:04.021Z,1030.49
2016-10-03T21:18:05.047Z,1030.53
2016-10-03T21:19:06.197Z,1030.54
2016-10-03T21:20:07.110Z,1030.51
2016-10-03T21:21:07.875Z,1030.56
2016-10-03T21:22:08.574Z,1030.54
2016-10-03T21:23:09.367Z,1030.54
2016-10-03T21:24:10.389Z,1030.54
2016-10-03T21:25:12.273Z,1030.54
2016-10-03T21:26:14.715Z,1030.55
2016-10-03T21:27:16.350Z,1030.55
2016-10-03T21:28:17.309Z,1030.58
2016-10-03T21:29:18.911Z,1030.54
2016-10-03T21:30:19.637Z,1030.53
2016-10-03T21:31:20.884Z,1030.5
2016-10-03T21:32:21.413Z,1030.52
2016-10-03T21:33:22.387Z,1030.49
2016-10-03T21:34:24.322Z,1030.55
2016-10-03T21:35:26.184Z,1030.58
2016-10-03T21:36:27.405Z,1030.6
2016-10-03T21:37:28.091Z,1030.64
2016-10-03T21:38:30.194Z,1030.58
2016-10-03T21:39:30.843Z,1030.57
2016-10-03T21:40:31.606Z,1030.57
2016-10-03T21:41:33.745Z,1030.6
2016-10-03T21:42:34.504Z,1030.6
2016-10-03T21:43:36.203Z,1030.59
2016-10-03T21:44:37.385Z,1030.57
2016-10-03T21:45:39.689Z,1030.61
2016-10-03T21:46:40.541Z,1030.63
2016-10-03T21:47:41.368Z,1030.62
2016-10-03T21:48:42.438Z,1030.68
2016-10-03T21:49:43.635Z,1030.66
2016-10-03T21:50:44.673Z,1030.7
2016-10-03T21:51:46.259Z,1030.71
2016-10-03T21:52:47.282Z,1030.75
2016-10-03T21:53:48.180Z,1030.74
2016-10-03T21:54:48.980Z,1030.7
2016-10-03T21:55:49.891Z,1030.69
2016-10-03T21:56:50.637Z,1030.71
2016-10-03T21:57:51.554Z,1030.7
2016-10-03T21:58:52.386Z,1030.7
2016-10-03T21:59:53.407Z,1030.72
2016-10-03T22:00:54.315Z,1030.72
2016-10-03T22:01:55.345Z,1030.71
2016-10-03T22:02:56.157Z,1030.72
2016-10-03T22:03:57.071Z,1030.72
2016-10-03T22:04:57.961Z,1030.75
2016-10-03T22:05:59.883Z,1030.82
2016-10-03T22:07:00.857Z,1030.83
2016-10-03T22:08:01.655Z,1030.83
2016-10-03T22:09:02.410Z,1030.91
2016-10-03T22:10:03.361Z,1030.91
2016-10-03T22:11:04.071Z,1030.91
2016-10-03T22:12:04.762Z,1030.92
2016-10-03T22:13:05.537Z,1030.9
2016-10-03T22:14:06.270Z,1030.94
2016-10-03T22:15:06.980Z,1030.96
2016-10-03T22:16:07.692Z,1030.94
2016-10-03T22:17:08.393Z,1030.95
2016-10-03T22:18:09.781Z,1031.04
2016-10-03T22:19:10.470Z,1030.99
2016-10-03T22:20:11.179Z,1031.01
2016-10-03T22:21:11.865Z,1031.04
2016-10-03T22:22:13.643Z,1031.03
2016-10-03T22:23:14.723Z,1031.05
2016-10-03T22:24:16.004Z,1031.1
2016-10-03T22:25:17.764Z,1031.08
2016-10-03T22:26:19.523Z,1031.12
2016-10-03T22:27:20.716Z,1031.1
2016-10-03T22:28:25.997Z,1031.14
2016-10-03T22:29:27.297Z,1031.17
2016-10-03T22:30:28.033Z,1031.15
2016-10-03T22:31:29.118Z,1031.2
2016-10-03T22:32:29.817Z,1031.23
2016-10-03T22:33:30.528Z,1031.2
2016-10-03T22:34:31.211Z,1031.23
2016-10-03T22:35:32.030Z,1031.23
2016-10-03T22:36:32.760Z,1031.28
2016-10-03T22:37:33.459Z,1031.31
2016-10-03T22:38:34.148Z,1031.32
2016-10-03T22:39:34.847Z,1031.29
2016-10-03T22:40:35.573Z,1031.29
2016-10-03T22:41:36.642Z,1031.35
2016-10-03T22:42:37.144Z,1031.35
2016-10-03T22:43:38.041Z,1031.33
2016-10-03T22:44:38.758Z,1031.35
2016-10-03T22:45:39.472Z,1031.37
2016-10-03T22:46:40.171Z,1031.38
2016-10-03T22:47:40.894Z,1031.39
2016-10-03T22:48:41.601Z,1031.33
2016-10-03T22:49:42.305Z,1031.35
2016-10-03T22:50:43.032Z,1031.43
2016-10-03T22:51:43.721Z,1031.42
2016-10-03T22:52:44.420Z,1031.43
2016-10-03T22:53:45.131Z,1031.46
2016-10-03T22:54:45.824Z,1031.45
2016-10-03T22:55:46.545Z,1031.43
2016-10-03T22:56:47.307Z,1031.43
2016-10-03T22:57:47.928Z,1031.5
2016-10-03T22:58:49.438Z,1031.49
2016-10-03T22:59:50.147Z,1031.47
2016-10-03T23:00:50.840Z,1031.45
2016-10-03T23:01:51.554Z,1031.54
2016-10-03T23:02:52.257Z,1031.52
2016-10-03T23:03:52.965Z,1031.55
2016-10-03T23:04:53.765Z,1031.55
2016-10-03T23:05:54.501Z,1031.53
2016-10-03T23:06:55.192Z,1031.58
2016-10-03T23:07:55.901Z,1031.6
2016-10-03T23:08:56.599Z,1031.63
2016-10-03T23:09:57.320Z,1031.62
2016-10-03T23:10:58.050Z,1031.61
2016-10-03T23:11:58.748Z,1031.65
2016-10-03T23:12:59.460Z,1031.7
2016-10-03T23:14:00.224Z,1031.68
2016-10-03T23:15:01.864Z,1031.66
2016-10-03T23:16:02.557Z,1031.69
2016-10-03T23:17:03.268Z,1031.7
2016-10-03T23:18:03.999Z,1031.71
2016-10-03T23:19:04.703Z,1031.69
2016-10-03T23:20:05.391Z,1031.73
2016-10-03T23:21:06.106Z,1031.73
2016-10-03T23:22:06.785Z,1031.76
2016-10-03T23:23:08.034Z,1031.82
2016-10-03T23:24:08.483Z,1031.76
2016-10-03T23:25:09.172Z,1031.79
2016-10-03T23:26:09.865Z,1031.81
2016-10-03T23:27:10.596Z,1031.85
2016-10-03T23:28:11.326Z,1031.89
2016-10-03T23:29:12.010Z,1031.89
2016-10-03T23:30:12.716Z,1031.9
2016-10-03T23:31:13.406Z,1031.92
2016-10-03T23:32:14.078Z,1031.92
2016-10-03T23:33:14.879Z,1031.95
2016-10-03T23:34:15.574Z,1031.95
2016-10-03T23:35:16.289Z,1031.98
2016-10-03T23:36:17.008Z,1031.98
2016-10-03T23:37:17.697Z,1032.01
2016-10-03T23:38:18.419Z,1032.04
2016-10-03T23:39:19.105Z,1032.02
2016-10-03T23:40:19.830Z,1032.05
2016-10-03T23:41:20.514Z,1032.04
2016-10-03T23:42:21.207Z,1032.06
2016-10-03T23:43:21.917Z,1032.05
2016-10-03T23:44:22.600Z,1032.04
2016-10-03T23:45:23.315Z,1032.05
2016-10-03T23:46:24.250Z,1032.09
2016-10-03T23:47:24.827Z,1032.06
2016-10-03T23:48:25.532Z,1032.07
2016-10-03T23:49:26.229Z,1032.11
2016-10-03T23:50:26.922Z,1032.14
2016-10-03T23:51:27.616Z,1032.15
2016-10-03T23:52:28.308Z,1032.14
2016-10-03T23:53:29.002Z,1032.15
2016-10-03T23:54:29.696Z,1032.17
2016-10-03T23:55:30.385Z,1032.19
2016-10-03T23:56:31.114Z,1032.2
2016-10-03T23:57:31.816Z,1032.2